Time;durP1;ratioP1;P1;durP2;ratioP2;P2;SDS_P1;SDS_P2;PMS_P1;PMS_P2;Temp;Humidity;BMP_temperature;BMP_pressure;BME280_temperature;BME280_humidity;BME280_pressure;Samples;Min_cycle;Max_cycle;Signal;HPM_P1;HPM_P2
2023/12/30 00:00:06;;;;;;;11.52;7.80;;;8.60;99.90;;;;;;5063102;28;20154;-74
2023/12/30 00:02:46;;;;;;;11.90;6.68;;;8.50;99.90;;;;;;5020668;28;20049;-75
2023/12/30 00:05:13;;;;;;;11.75;5.93;;;8.40;99.90;;;;;;5031179;28;20052;-74
2023/12/30 00:07:40;;;;;;;11.93;6.18;;;8.30;99.90;;;;;;5030638;28;20045;-77
2023/12/30 00:10:07;;;;;;;13.30;6.35;;;8.20;99.90;;;;;;5032350;28;20053;-74
2023/12/30 00:12:35;;;;;;;12.77;5.47;;;8.20;99.90;;;;;;5022217;28;20150;-75
2023/12/30 00:15:02;;;;;;;16.15;5.68;;;8.10;99.90;;;;;;5027344;28;20063;-77
2023/12/30 00:17:29;;;;;;;10.82;5.30;;;8.10;99.90;;;;;;5034427;28;20423;-75
2023/12/30 00:19:56;;;;;;;15.57;6.10;;;8.10;99.90;;;;;;5027217;28;20162;-77
2023/12/30 00:22:23;;;;;;;17.13;6.25;;;8.10;99.90;;;;;;5031794;28;20462;-75
2023/12/30 00:24:50;;;;;;;12.35;6.93;;;8.10;99.90;;;;;;5033185;28;20499;-76
2023/12/30 00:27:17;;;;;;;12.70;6.95;;;8.20;99.90;;;;;;5028964;28;20048;-75
2023/12/30 00:29:44;;;;;;;14.57;7.35;;;8.10;99.90;;;;;;5026228;28;20112;-75
2023/12/30 00:32:11;;;;;;;10.73;6.95;;;8.20;99.90;;;;;;5033699;28;20655;-77
2023/12/30 00:34:38;;;;;;;10.80;7.10;;;8.20;99.90;;;;;;5032061;28;20059;-76
2023/12/30 00:37:05;;;;;;;18.13;7.97;;;8.30;99.90;;;;;;5025392;28;20153;-77
2023/12/30 00:39:32;;;;;;;11.18;7.95;;;8.30;99.90;;;;;;5028377;28;20565;-76
2023/12/30 00:41:58;;;;;;;12.13;8.15;;;8.30;99.90;;;;;;5025115;28;20117;-77
2023/12/30 00:44:25;;;;;;;8.90;8.10;;;8.40;99.90;;;;;;5033885;28;20747;-77
2023/12/30 00:46:52;;;;;;;17.27;9.02;;;8.30;99.90;;;;;;5022132;28;20052;-75
2023/12/30 00:49:19;;;;;;;10.70;8.18;;;8.30;99.90;;;;;;5030664;28;20423;-77
2023/12/30 00:51:46;;;;;;;15.90;9.45;;;8.30;99.90;;;;;;5031820;28;20666;-77
2023/12/30 00:54:13;;;;;;;18.80;8.73;;;8.30;99.90;;;;;;5028580;28;20049;-78
2023/12/30 00:56:40;;;;;;;9.32;8.38;;;8.30;99.90;;;;;;5029518;28;20081;-76
2023/12/30 00:59:06;;;;;;;13.63;7.68;;;8.30;99.90;;;;;;5012357;28;20570;-78
2023/12/30 01:01:33;;;;;;;9.10;7.30;;;8.00;99.90;;;;;;5011802;28;20562;-75
2023/12/30 01:04:00;;;;;;;8.35;6.22;;;7.40;99.90;;;;;;4994006;28;20056;-77
2023/12/30 01:06:27;;;;;;;6.53;5.50;;;6.80;99.90;;;;;;5026891;28;20052;-76
2023/12/30 01:08:54;;;;;;;7.88;3.75;;;6.50;99.90;;;;;;5014051;28;20052;-75
2023/12/30 01:11:20;;;;;;;3.60;2.95;;;6.10;99.90;;;;;;5016083;28;20044;-76
2023/12/30 01:13:47;;;;;;;4.78;3.30;;;5.60;99.90;;;;;;5023404;28;20041;-77
2023/12/30 01:16:16;;;;;;;7.00;4.07;;;5.30;99.90;;;;;;5023191;28;21854;-76
2023/12/30 01:18:45;;;;;;;6.75;3.83;;;5.20;99.90;;;;;;5040687;28;20099;-76
2023/12/30 01:21:12;;;;;;;3.40;3.10;;;5.10;99.90;;;;;;5023213;28;20044;-78
2023/12/30 01:23:38;;;;;;;4.53;3.58;;;5.00;99.90;;;;;;5017745;28;20052;-77
2023/12/30 01:26:05;;;;;;;4.22;3.38;;;5.00;99.90;;;;;;5029789;28;20128;-76
2023/12/30 01:28:34;;;;;;;8.50;3.75;;;5.00;99.90;;;;;;5018189;28;20084;-77
2023/12/30 01:31:01;;;;;;;4.88;3.63;;;4.90;99.90;;;;;;4990236;28;20053;-75
2023/12/30 01:33:28;;;;;;;5.65;3.50;;;4.90;99.90;;;;;;5019061;28;20048;-76
2023/12/30 01:35:55;;;;;;;7.05;3.63;;;5.00;99.90;;;;;;5010926;28;20052;-76
2023/12/30 01:38:22;;;;;;;11.07;4.20;;;5.10;99.90;;;;;;5007278;28;20053;-75
2023/12/30 01:40:49;;;;;;;4.20;3.72;;;5.20;99.90;;;;;;5020623;28;20049;-78
2023/12/30 01:43:27;;;;;;;4.05;3.13;;;5.10;99.90;;;;;;5029588;28;20037;-77
2023/12/30 01:45:57;;;;;;;4.70;3.85;;;4.90;99.90;;;;;;5014124;28;20049;-76
2023/12/30 01:48:24;;;;;;;4.80;3.83;;;4.80;99.90;;;;;;5031394;28;20130;-76
2023/12/30 01:50:53;;;;;;;4.28;3.45;;;4.90;99.90;;;;;;5014800;28;20044;-76
2023/12/30 01:53:21;;;;;;;7.57;3.90;;;4.90;99.90;;;;;;5027826;28;20045;-76
2023/12/30 01:55:50;;;;;;;10.23;4.20;;;5.00;99.90;;;;;;5036118;28;20104;-76
2023/12/30 01:58:21;;;;;;;5.47;3.70;;;5.00;99.90;;;;;;5035034;28;20690;-74
2023/12/30 02:00:48;;;;;;;6.47;3.10;;;5.10;99.90;;;;;;5034616;28;20036;-76
2023/12/30 02:03:17;;;;;;;13.52;3.75;;;5.20;99.90;;;;;;5038344;28;20059;-77
2023/12/30 02:05:46;;;;;;;10.50;3.55;;;5.20;99.90;;;;;;5037318;28;20506;-79
2023/12/30 02:08:16;;;;;;;6.88;3.90;;;4.90;99.90;;;;;;5007505;28;20049;-78
2023/12/30 02:10:43;;;;;;;8.77;3.88;;;4.70;99.90;;;;;;5064723;28;20071;-77
2023/12/30 02:13:11;;;;;;;7.43;3.67;;;4.70;99.90;;;;;;5024829;28;20057;-77
2023/12/30 02:15:38;;;;;;;7.82;4.13;;;4.80;99.90;;;;;;5034613;28;20148;-76
2023/12/30 02:18:05;;;;;;;12.27;4.75;;;4.90;99.90;;;;;;5026920;28;20049;-77
2023/12/30 02:20:33;;;;;;;9.40;4.40;;;4.90;99.90;;;;;;5036458;28;20114;-75
2023/12/30 02:23:00;;;;;;;11.30;4.80;;;5.00;99.90;;;;;;5037973;28;20049;-75
2023/12/30 02:25:27;;;;;;;15.20;4.22;;;5.10;99.90;;;;;;5031305;28;20136;-76
2023/12/30 02:27:54;;;;;;;9.63;4.25;;;5.10;99.90;;;;;;5029473;28;20056;-75
2023/12/30 02:30:23;;;;;;;8.07;4.13;;;5.10;99.90;;;;;;5025711;28;20056;-76
2023/12/30 02:32:57;;;;;;;14.50;4.07;;;5.20;99.90;;;;;;5027893;28;20044;-76
2023/12/30 02:35:24;;;;;;;10.25;4.22;;;5.30;99.90;;;;;;5027337;28;20048;-75
2023/12/30 02:37:51;;;;;;;8.18;2.83;;;5.30;99.90;;;;;;5036483;28;20164;-75
2023/12/30 02:40:19;;;;;;;5.95;2.53;;;5.40;99.90;;;;;;5026927;28;20087;-76
2023/12/30 02:42:46;;;;;;;7.80;2.33;;;5.50;99.90;;;;;;5025574;28;20049;-76
2023/12/30 02:45:13;;;;;;;7.63;2.50;;;5.50;99.90;;;;;;5030067;28;20519;-75
2023/12/30 02:47:40;;;;;;;15.70;2.38;;;5.50;99.90;;;;;;5030013;28;20396;-76
2023/12/30 02:50:07;;;;;;;3.60;2.47;;;5.60;99.90;;;;;;5010001;28;20050;-76
2023/12/30 02:52:34;;;;;;;8.13;3.08;;;5.60;99.90;;;;;;4998164;28;20075;-75
2023/12/30 02:55:03;;;;;;;16.58;3.50;;;5.60;99.90;;;;;;5015523;28;20037;-75
2023/12/30 02:57:30;;;;;;;7.13;2.85;;;5.50;99.90;;;;;;5013066;28;20045;-76
2023/12/30 03:00:13;;;;;;;9.75;3.47;;;5.60;99.90;;;;;;5045569;28;20048;-74
2023/12/30 03:02:41;;;;;;;7.55;3.65;;;5.50;99.90;;;;;;5030564;28;21107;-76
2023/12/30 03:05:09;;;;;;;7.35;2.55;;;5.60;99.90;;;;;;5013949;28;20048;-75
2023/12/30 03:07:36;;;;;;;10.65;3.30;;;5.50;99.90;;;;;;5030942;28;20431;-76
2023/12/30 03:10:06;;;;;;;6.85;2.67;;;5.50;99.90;;;;;;5028286;28;20037;-77
2023/12/30 03:12:33;;;;;;;6.63;2.75;;;5.50;99.90;;;;;;5034106;28;20120;-74
2023/12/30 03:15:00;;;;;;;8.63;3.72;;;5.50;99.90;;;;;;5018062;28;20041;-76
2023/12/30 03:17:27;;;;;;;5.28;2.92;;;5.50;99.90;;;;;;5034762;28;20048;-76
2023/12/30 03:19:54;;;;;;;8.18;3.15;;;5.50;99.90;;;;;;5037038;28;20039;-74
2023/12/30 03:22:21;;;;;;;5.03;2.88;;;5.60;99.90;;;;;;5049091;28;20055;-73
2023/12/30 03:24:48;;;;;;;8.40;3.25;;;5.60;99.90;;;;;;5058534;28;20049;-73
2023/12/30 03:27:15;;;;;;;7.25;3.28;;;5.60;99.90;;;;;;5035817;28;20081;-74
2023/12/30 03:29:43;;;;;;;7.38;3.58;;;5.60;99.90;;;;;;5008860;28;20057;-76
2023/12/30 03:32:10;;;;;;;7.63;3.75;;;5.60;99.90;;;;;;5027369;28;20048;-76
2023/12/30 03:34:37;;;;;;;11.07;3.83;;;5.60;99.90;;;;;;5031616;28;20041;-75
2023/12/30 03:37:04;;;;;;;16.08;4.03;;;5.60;99.90;;;;;;5034751;28;20434;-75
2023/12/30 03:39:30;;;;;;;9.93;4.10;;;5.60;99.90;;;;;;5046105;28;20072;-76
2023/12/30 03:41:57;;;;;;;6.97;3.42;;;5.60;99.90;;;;;;5029292;28;20623;-76
2023/12/30 03:44:24;;;;;;;8.95;3.70;;;5.60;99.90;;;;;;5014257;28;20045;-78
2023/12/30 03:46:51;;;;;;;11.68;3.90;;;5.60;99.90;;;;;;5026083;28;20705;-76
2023/12/30 03:49:18;;;;;;;14.13;5.38;;;5.60;99.90;;;;;;5030203;28;20074;-75
2023/12/30 03:51:45;;;;;;;21.77;7.78;;;5.50;99.90;;;;;;5027316;28;21254;-78
2023/12/30 03:54:11;;;;;;;13.15;5.32;;;5.60;99.90;;;;;;5031609;28;20049;-76
2023/12/30 03:56:39;;;;;;;15.68;5.50;;;5.50;99.90;;;;;;5011558;28;20064;-76
2023/12/30 03:59:06;;;;;;;11.68;4.50;;;5.50;99.90;;;;;;5036493;28;20055;-77
2023/12/30 04:01:33;;;;;;;9.55;5.10;;;5.60;99.90;;;;;;5029250;28;20042;-77
2023/12/30 04:04:00;;;;;;;15.43;6.82;;;5.60;99.90;;;;;;5009531;28;20037;-76
2023/12/30 04:06:27;;;;;;;13.05;5.82;;;5.50;99.90;;;;;;5025012;28;20048;-75
2023/12/30 04:08:54;;;;;;;17.80;5.60;;;5.50;99.90;;;;;;5039115;28;20048;-76
2023/12/30 04:11:21;;;;;;;9.07;5.45;;;5.50;99.90;;;;;;5037466;28;20263;-76
2023/12/30 04:13:48;;;;;;;15.73;6.00;;;5.50;99.90;;;;;;5009639;28;20037;-76
2023/12/30 04:16:15;;;;;;;10.02;5.80;;;5.60;99.90;;;;;;5002879;28;20567;-78
2023/12/30 04:18:41;;;;;;;9.57;6.30;;;5.60;99.90;;;;;;5032047;28;20055;-76
2023/12/30 04:21:08;;;;;;;14.02;6.25;;;5.60;99.90;;;;;;5034077;28;20036;-77
2023/12/30 04:23:35;;;;;;;11.75;5.90;;;5.70;99.90;;;;;;5018618;28;20659;-75
2023/12/30 04:26:02;;;;;;;14.85;6.97;;;5.70;99.90;;;;;;5017540;28;20136;-78
2023/12/30 04:28:29;;;;;;;10.48;6.50;;;5.80;99.90;;;;;;5021730;28;20049;-75
2023/12/30 04:30:56;;;;;;;12.48;6.38;;;5.80;99.90;;;;;;5034599;28;20110;-76
2023/12/30 04:33:23;;;;;;;24.02;7.72;;;5.90;99.90;;;;;;5037321;28;20431;-77
2023/12/30 04:35:50;;;;;;;17.02;6.43;;;5.90;99.90;;;;;;5029407;28;20130;-76
2023/12/30 04:38:18;;;;;;;17.02;7.00;;;6.00;99.90;;;;;;5009733;28;20075;-76
2023/12/30 04:40:45;;;;;;;21.90;7.43;;;6.00;99.90;;;;;;5036008;28;20059;-77
2023/12/30 04:43:12;;;;;;;23.42;7.72;;;6.10;99.90;;;;;;5023513;28;20163;-78
2023/12/30 04:45:39;;;;;;;17.42;6.07;;;6.20;99.90;;;;;;5034722;28;20518;-75
2023/12/30 04:48:07;;;;;;;21.83;6.60;;;6.20;99.90;;;;;;5040497;28;20395;-78
2023/12/30 04:50:35;;;;;;;17.33;6.65;;;6.30;99.90;;;;;;5038086;28;20037;-76
2023/12/30 04:53:02;;;;;;;22.27;7.05;;;6.40;99.90;;;;;;5045871;28;20056;-77
2023/12/30 04:55:29;;;;;;;15.70;4.95;;;6.40;99.90;;;;;;5029747;28;20073;-80
2023/12/30 04:57:57;;;;;;;15.65;5.53;;;6.50;99.90;;;;;;5035338;28;20048;-78
2023/12/30 05:00:23;;;;;;;10.73;5.20;;;6.50;99.90;;;;;;5035719;28;20482;-78
2023/12/30 05:02:50;;;;;;;19.25;7.22;;;6.50;99.90;;;;;;5032578;28;20132;-77
2023/12/30 05:05:17;;;;;;;16.88;5.97;;;6.60;99.90;;;;;;5033183;28;20730;-77
2023/12/30 05:07:44;;;;;;;18.38;5.22;;;6.60;99.90;;;;;;5051279;28;20045;-78
2023/12/30 05:10:11;;;;;;;17.00;5.93;;;6.60;99.90;;;;;;5036124;28;20052;-78
2023/12/30 05:12:38;;;;;;;17.45;6.07;;;6.70;99.90;;;;;;4994781;28;20071;-78
2023/12/30 05:15:05;;;;;;;18.55;5.90;;;6.70;99.90;;;;;;5016009;28;20052;-77
2023/12/30 05:17:32;;;;;;;16.58;6.45;;;6.70;99.90;;;;;;5007150;28;20044;-77
2023/12/30 05:19:59;;;;;;;16.52;5.82;;;6.70;99.90;;;;;;5016506;28;20076;-79
2023/12/30 05:22:26;;;;;;;20.83;6.05;;;6.70;99.90;;;;;;5035053;28;20641;-78
2023/12/30 05:24:53;;;;;;;20.13;7.50;;;6.70;99.90;;;;;;5030147;28;20041;-77
2023/12/30 05:27:21;;;;;;;15.00;6.38;;;6.70;99.90;;;;;;5028287;28;20283;-75
2023/12/30 05:29:47;;;;;;;23.50;7.18;;;6.80;99.90;;;;;;5015906;28;21397;-76
2023/12/30 05:32:14;;;;;;;16.90;5.90;;;6.80;99.90;;;;;;5031770;28;20047;-75
2023/12/30 05:34:41;;;;;;;13.30;5.38;;;6.80;99.90;;;;;;5013074;28;20139;-75
2023/12/30 05:37:08;;;;;;;20.88;6.45;;;6.80;99.90;;;;;;5024638;28;20069;-76
2023/12/30 05:39:35;;;;;;;21.58;6.53;;;6.80;99.90;;;;;;5014910;28;20056;-74
2023/12/30 05:42:02;;;;;;;17.73;6.07;;;6.80;99.90;;;;;;5012070;28;20821;-76
2023/12/30 05:44:29;;;;;;;14.70;5.80;;;6.80;99.90;;;;;;5039183;28;20106;-74
2023/12/30 05:46:56;;;;;;;14.63;6.10;;;6.80;99.90;;;;;;5024544;28;20131;-74
2023/12/30 05:49:23;;;;;;;16.92;5.82;;;6.80;99.90;;;;;;5038415;28;20048;-75
2023/12/30 05:51:50;;;;;;;13.90;7.03;;;6.80;99.90;;;;;;5031847;28;20512;-77
2023/12/30 05:54:16;;;;;;;15.48;6.35;;;6.80;99.90;;;;;;5031392;28;20055;-76
2023/12/30 05:56:43;;;;;;;17.42;6.35;;;6.80;99.90;;;;;;5026884;28;20055;-74
2023/12/30 05:59:10;;;;;;;16.17;6.40;;;6.80;99.90;;;;;;5031947;28;20033;-77
2023/12/30 06:01:46;;;;;;;17.23;8.18;;;6.80;99.90;;;;;;5033300;28;20189;-77
2023/12/30 06:04:14;;;;;;;19.63;7.53;;;6.80;99.90;;;;;;5041218;28;20048;-71
2023/12/30 06:06:42;;;;;;;21.13;7.30;;;6.70;99.90;;;;;;5036344;28;20045;-75
2023/12/30 06:09:09;;;;;;;15.93;6.88;;;6.80;99.90;;;;;;5035388;28;20048;-76
2023/12/30 06:11:36;;;;;;;13.77;5.93;;;6.80;99.90;;;;;;5028036;28;20045;-75
2023/12/30 06:14:03;;;;;;;14.52;6.65;;;6.80;99.90;;;;;;5030655;28;20037;-75
2023/12/30 06:16:30;;;;;;;12.27;6.38;;;6.80;99.90;;;;;;5034093;28;20045;-76
2023/12/30 06:18:57;;;;;;;19.08;6.30;;;6.90;99.90;;;;;;5036072;28;20053;-75
2023/12/30 06:21:24;;;;;;;18.77;6.60;;;6.90;99.90;;;;;;5035888;28;20046;-75
2023/12/30 06:23:51;;;;;;;15.30;7.15;;;6.80;99.90;;;;;;4988326;28;20078;-76
2023/12/30 06:26:17;;;;;;;11.25;5.60;;;6.70;99.90;;;;;;5023095;28;20169;-75
2023/12/30 06:28:45;;;;;;;14.55;5.97;;;6.60;99.90;;;;;;5030106;28;20495;-76
2023/12/30 06:31:12;;;;;;;16.55;5.85;;;6.60;99.90;;;;;;5033582;28;20064;-74
2023/12/30 06:33:39;;;;;;;12.27;5.07;;;6.50;99.90;;;;;;5032432;28;20045;-78
2023/12/30 06:36:07;;;;;;;20.10;5.40;;;6.50;99.90;;;;;;5037008;28;20064;-74
2023/12/30 06:38:35;;;;;;;12.80;5.13;;;6.50;99.90;;;;;;5029393;28;20083;-74
2023/12/30 06:41:06;;;;;;;12.60;5.00;;;6.40;99.90;;;;;;5048708;28;20060;-74
2023/12/30 06:43:32;;;;;;;10.40;5.32;;;6.50;99.90;;;;;;5041819;28;20076;-74
2023/12/30 06:46:03;;;;;;;8.27;4.75;;;6.40;99.90;;;;;;5021195;28;20152;-76
2023/12/30 06:48:30;;;;;;;10.60;4.75;;;6.40;99.90;;;;;;5030264;28;20041;-74
2023/12/30 06:51:00;;;;;;;13.65;5.43;;;6.40;99.90;;;;;;5013990;28;20041;-76
2023/12/30 06:53:30;;;;;;;8.13;4.78;;;6.50;99.90;;;;;;5019887;28;20047;-75
2023/12/30 06:56:00;;;;;;;13.70;5.25;;;6.40;99.90;;;;;;5024595;28;20041;-74
2023/12/30 06:58:29;;;;;;;18.55;5.90;;;6.40;99.90;;;;;;5050264;28;20053;-75
2023/12/30 07:00:56;;;;;;;14.98;4.93;;;6.40;99.90;;;;;;5046171;28;20055;-76
2023/12/30 07:03:23;;;;;;;13.07;4.85;;;6.40;99.90;;;;;;5045257;28;20072;-78
2023/12/30 07:05:50;;;;;;;16.00;5.65;;;6.40;99.90;;;;;;5029723;28;20086;-77
2023/12/30 07:08:17;;;;;;;28.08;6.75;;;6.40;99.90;;;;;;5035129;28;20144;-78
2023/12/30 07:10:44;;;;;;;15.50;6.28;;;6.40;99.90;;;;;;5016536;28;20036;-77
2023/12/30 07:13:11;;;;;;;12.27;5.25;;;6.40;99.90;;;;;;5027298;28;20104;-77
2023/12/30 07:15:38;;;;;;;25.85;5.90;;;6.40;99.90;;;;;;5032295;28;20682;-76
2023/12/30 07:18:04;;;;;;;14.20;5.40;;;6.40;99.90;;;;;;5033758;28;20527;-77
2023/12/30 07:20:32;;;;;;;20.10;6.68;;;6.40;99.90;;;;;;4989308;28;20056;-77
2023/12/30 07:22:59;;;;;;;14.57;5.78;;;6.40;99.90;;;;;;5019827;28;20047;-76
2023/12/30 07:25:27;;;;;;;20.73;6.18;;;6.40;99.90;;;;;;5027137;28;20045;-78
2023/12/30 07:27:53;;;;;;;22.92;6.80;;;6.40;99.90;;;;;;5031004;28;20041;-77
2023/12/30 07:30:20;;;;;;;10.90;6.28;;;6.40;99.90;;;;;;5015418;28;20051;-79
2023/12/30 07:32:47;;;;;;;15.80;6.15;;;6.40;99.90;;;;;;5012430;28;20059;-77
2023/12/30 07:35:14;;;;;;;23.38;7.85;;;6.40;99.90;;;;;;5032055;28;20036;-77
2023/12/30 07:37:41;;;;;;;17.52;7.15;;;6.40;99.90;;;;;;5008012;28;20145;-75
2023/12/30 07:40:09;;;;;;;21.48;6.88;;;6.40;99.90;;;;;;5011949;28;20063;-77
2023/12/30 07:42:36;;;;;;;12.90;7.30;;;6.40;99.90;;;;;;5027955;28;20115;-74
2023/12/30 07:45:06;;;;;;;21.35;6.70;;;6.50;99.90;;;;;;5030167;28;20056;-75
2023/12/30 07:47:33;;;;;;;17.70;8.88;;;6.40;99.90;;;;;;5025613;28;20051;-75
2023/12/30 07:50:00;;;;;;;14.18;7.38;;;6.40;99.90;;;;;;5031154;28;20127;-75
2023/12/30 07:52:27;;;;;;;25.75;11.77;;;6.40;99.90;;;;;;5029681;28;20068;-74
2023/12/30 07:54:54;;;;;;;13.98;9.73;;;6.40;99.90;;;;;;5023172;28;20921;-76
2023/12/30 07:57:22;;;;;;;21.75;9.85;;;6.50;99.90;;;;;;5032618;28;20051;-75
2023/12/30 07:59:50;;;;;;;12.90;10.07;;;6.40;99.90;;;;;;5012091;28;20056;-76
2023/12/30 08:02:16;;;;;;;18.02;9.80;;;6.40;99.90;;;;;;5007206;28;20138;-75
2023/12/30 08:04:44;;;;;;;17.35;11.32;;;6.50;99.90;;;;;;5026318;28;20060;-75
2023/12/30 08:07:11;;;;;;;15.20;8.15;;;6.50;99.90;;;;;;5029228;28;20025;-75
2023/12/30 08:09:38;;;;;;;21.95;10.98;;;6.40;99.90;;;;;;5026610;28;20839;-75
2023/12/30 08:12:05;;;;;;;17.65;8.15;;;6.40;99.90;;;;;;5013002;28;20053;-75
2023/12/30 08:14:33;;;;;;;13.70;9.07;;;6.50;99.90;;;;;;5026315;28;20041;-76
2023/12/30 08:17:01;;;;;;;21.40;9.38;;;6.50;99.90;;;;;;5028128;28;20943;-75
2023/12/30 08:19:28;;;;;;;16.00;8.40;;;6.50;99.90;;;;;;5031227;28;20056;-75
2023/12/30 08:21:54;;;;;;;15.85;8.48;;;6.50;99.90;;;;;;5016399;28;20503;-75
2023/12/30 08:24:21;;;;;;;22.50;10.43;;;6.50;99.90;;;;;;5009516;28;20125;-75
2023/12/30 08:26:48;;;;;;;16.10;9.38;;;6.60;99.90;;;;;;5025642;28;20052;-72
2023/12/30 08:29:15;;;;;;;22.23;10.20;;;6.60;99.90;;;;;;5035874;28;20051;-75
2023/12/30 08:31:45;;;;;;;18.15;8.98;;;6.60;99.90;;;;;;5022229;28;20095;-75
2023/12/30 08:34:13;;;;;;;18.58;8.93;;;6.60;99.90;;;;;;5027217;28;20048;-76
2023/12/30 08:36:40;;;;;;;13.80;8.90;;;6.70;99.90;;;;;;5025748;28;20056;-75
2023/12/30 08:39:07;;;;;;;17.08;9.38;;;6.70;99.90;;;;;;5030057;28;20041;-76
2023/12/30 08:41:34;;;;;;;18.55;9.68;;;6.70;99.90;;;;;;5015839;28;20045;-75
2023/12/30 08:44:02;;;;;;;22.95;10.77;;;6.70;99.90;;;;;;5003955;28;20045;-76
2023/12/30 08:46:29;;;;;;;13.73;10.15;;;6.70;99.90;;;;;;5030389;28;20047;-76
2023/12/30 08:48:56;;;;;;;22.88;11.77;;;6.80;99.90;;;;;;5029608;28;20051;-77
2023/12/30 08:51:23;;;;;;;21.88;11.25;;;6.70;99.90;;;;;;5020283;28;20381;-75
2023/12/30 08:53:50;;;;;;;20.05;10.35;;;6.80;99.90;;;;;;5015058;28;20134;-76
2023/12/30 08:56:17;;;;;;;18.42;11.30;;;6.80;99.90;;;;;;5026641;28;20087;-75
2023/12/30 08:58:43;;;;;;;20.30;11.68;;;6.80;99.90;;;;;;5028058;28;20107;-75
2023/12/30 09:01:10;;;;;;;14.15;10.40;;;6.80;99.90;;;;;;5030763;28;20699;-75
2023/12/30 09:03:37;;;;;;;15.73;12.20;;;6.90;99.90;;;;;;5033390;28;20110;-76
2023/12/30 09:06:04;;;;;;;11.10;9.75;;;6.90;99.90;;;;;;5022677;28;20400;-76
2023/12/30 09:08:31;;;;;;;17.35;12.32;;;7.00;99.90;;;;;;5023630;28;20068;-76
2023/12/30 09:10:58;;;;;;;14.07;12.57;;;7.00;99.90;;;;;;5018132;28;20044;-75
2023/12/30 09:13:26;;;;;;;19.92;14.43;;;7.00;99.90;;;;;;5024641;28;20051;-74
2023/12/30 09:15:52;;;;;;;11.43;10.18;;;7.10;99.90;;;;;;5023662;28;20053;-76
2023/12/30 09:18:19;;;;;;;19.58;11.68;;;7.00;99.90;;;;;;5025623;28;20055;-75
2023/12/30 09:20:46;;;;;;;17.08;10.60;;;7.10;99.90;;;;;;5025950;28;20044;-75
2023/12/30 09:23:13;;;;;;;16.90;10.95;;;7.10;99.90;;;;;;5033520;28;20043;-76
2023/12/30 09:25:39;;;;;;;16.05;10.35;;;7.10;99.90;;;;;;5011091;28;20089;-74
2023/12/30 09:28:06;;;;;;;14.30;12.02;;;7.20;99.90;;;;;;5030089;28;20044;-75
2023/12/30 09:30:33;;;;;;;16.90;12.18;;;7.20;99.90;;;;;;5028486;28;21121;-76
2023/12/30 09:33:01;;;;;;;17.88;10.40;;;7.20;99.90;;;;;;5023438;28;20079;-75
2023/12/30 09:35:28;;;;;;;19.50;12.23;;;7.30;99.90;;;;;;5016285;28;20138;-76
2023/12/30 09:37:55;;;;;;;19.83;12.95;;;7.30;99.90;;;;;;5029633;28;20051;-75
2023/12/30 09:40:22;;;;;;;19.23;13.40;;;7.30;99.90;;;;;;5032602;28;20534;-76
2023/12/30 09:42:50;;;;;;;16.17;13.18;;;7.40;99.90;;;;;;5027347;28;20573;-76
2023/12/30 09:45:18;;;;;;;21.40;13.60;;;7.30;99.90;;;;;;5025417;28;20048;-75
2023/12/30 09:47:45;;;;;;;18.55;13.95;;;7.40;99.90;;;;;;5012596;28;20049;-76
2023/12/30 09:50:13;;;;;;;17.90;14.88;;;7.40;99.90;;;;;;5015077;28;20049;-77
2023/12/30 09:52:40;;;;;;;20.13;15.77;;;7.40;99.90;;;;;;4986385;28;20057;-76
2023/12/30 09:55:07;;;;;;;16.23;14.75;;;7.40;99.90;;;;;;4983328;28;20134;-76
2023/12/30 09:57:34;;;;;;;22.45;17.20;;;7.50;99.90;;;;;;5021145;28;20565;-75
2023/12/30 10:00:05;;;;;;;28.35;17.85;;;7.50;99.90;;;;;;5013491;28;20053;-75
2023/12/30 10:02:32;;;;;;;18.70;17.02;;;7.60;99.90;;;;;;5018583;28;20041;-75
2023/12/30 10:04:59;;;;;;;19.42;17.70;;;7.60;99.90;;;;;;5030177;28;20098;-75
2023/12/30 10:07:31;;;;;;;21.75;16.98;;;7.60;99.90;;;;;;5030880;28;20739;-76
2023/12/30 10:09:58;;;;;;;20.55;16.58;;;7.60;99.90;;;;;;5032475;28;20758;-75
2023/12/30 10:12:25;;;;;;;18.92;17.00;;;7.80;99.90;;;;;;5029334;28;20045;-75
2023/12/30 10:14:52;;;;;;;18.50;16.60;;;7.80;99.90;;;;;;5036540;28;20061;-77
2023/12/30 10:17:20;;;;;;;18.58;16.88;;;7.70;99.90;;;;;;5030058;28;20088;-74
2023/12/30 10:19:47;;;;;;;19.23;17.35;;;7.70;99.90;;;;;;5033316;28;20089;-74
2023/12/30 10:22:14;;;;;;;21.52;18.42;;;7.70;99.90;;;;;;5034514;28;20041;-76
2023/12/30 10:24:42;;;;;;;20.73;18.80;;;7.70;99.90;;;;;;4995375;28;20156;-77
2023/12/30 10:27:10;;;;;;;21.98;19.73;;;7.70;99.90;;;;;;5027590;28;20449;-77
2023/12/30 10:29:38;;;;;;;21.35;19.05;;;7.80;99.90;;;;;;5029928;28;20459;-76
2023/12/30 10:32:20;;;;;;;22.45;20.27;;;7.80;99.90;;;;;;5034526;28;20090;-76
2023/12/30 10:34:48;;;;;;;23.58;19.40;;;7.80;99.90;;;;;;5028862;28;20173;-74
2023/12/30 10:37:16;;;;;;;22.02;19.95;;;7.80;99.90;;;;;;5022986;28;20052;-75
2023/12/30 10:39:45;;;;;;;19.45;17.85;;;7.80;99.90;;;;;;5037474;28;20047;-75
2023/12/30 10:42:13;;;;;;;21.35;19.27;;;7.80;99.90;;;;;;5048029;28;20055;-77
2023/12/30 10:44:40;;;;;;;19.92;18.25;;;7.90;99.90;;;;;;5019357;28;20087;-77
2023/12/30 10:47:10;;;;;;;21.55;19.45;;;7.80;99.90;;;;;;5014043;28;20068;-74
2023/12/30 10:49:39;;;;;;;19.75;17.63;;;7.80;99.90;;;;;;5009176;28;20074;-76
2023/12/30 10:52:11;;;;;;;20.15;18.60;;;8.00;99.90;;;;;;5025984;28;20519;-75
2023/12/30 10:54:47;;;;;;;19.77;17.88;;;8.00;99.90;;;;;;5028676;28;20041;-74
2023/12/30 10:57:17;;;;;;;23.15;21.05;;;8.10;99.90;;;;;;5023520;28;20152;-76
2023/12/30 10:59:49;;;;;;;23.88;20.02;;;8.10;99.90;;;;;;5031139;28;20067;-75
2023/12/30 11:02:17;;;;;;;19.30;17.85;;;8.20;99.90;;;;;;5031228;28;20071;-76
2023/12/30 11:04:45;;;;;;;20.58;18.65;;;8.20;99.90;;;;;;5034981;28;20056;-76
2023/12/30 11:07:15;;;;;;;21.70;20.00;;;8.30;99.90;;;;;;5027961;28;20045;-76
2023/12/30 11:09:42;;;;;;;22.52;19.17;;;8.30;99.90;;;;;;5034741;28;20048;-79
2023/12/30 11:12:09;;;;;;;22.50;17.52;;;8.40;99.90;;;;;;5011069;28;20052;-77
2023/12/30 11:14:36;;;;;;;19.52;17.63;;;8.50;99.90;;;;;;5025456;28;20068;-76
2023/12/30 11:17:04;;;;;;;20.35;17.15;;;8.50;99.90;;;;;;5021443;28;20106;-78
2023/12/30 11:19:32;;;;;;;21.23;18.92;;;8.60;99.90;;;;;;5005657;28;20045;-78
2023/12/30 11:22:06;;;;;;;20.27;18.52;;;8.60;99.90;;;;;;5028897;28;20044;-77
2023/12/30 11:24:34;;;;;;;21.42;19.50;;;8.60;99.90;;;;;;5005185;28;20104;-75
2023/12/30 11:27:02;;;;;;;20.45;18.38;;;8.60;99.90;;;;;;5021794;28;20144;-76
2023/12/30 11:29:29;;;;;;;21.02;19.27;;;8.60;99.90;;;;;;5020621;28;20499;-77
2023/12/30 11:31:58;;;;;;;21.40;18.80;;;8.60;99.90;;;;;;5023917;28;20050;-76
2023/12/30 11:34:26;;;;;;;19.80;17.80;;;8.50;99.90;;;;;;5051091;28;20060;-75
2023/12/30 11:36:54;;;;;;;19.20;17.42;;;8.60;99.90;;;;;;5012766;28;20045;-75
2023/12/30 11:39:38;;;;;;;23.15;20.95;;;8.60;99.90;;;;;;5034839;28;20534;-76
2023/12/30 11:42:06;;;;;;;25.48;21.02;;;8.50;99.90;;;;;;5025902;28;20040;-76
2023/12/30 11:44:33;;;;;;;21.98;19.95;;;8.50;99.90;;;;;;5028516;28;20735;-77
2023/12/30 11:47:00;;;;;;;23.08;20.65;;;8.30;99.90;;;;;;5003108;28;20041;-76
2023/12/30 11:49:28;;;;;;;24.92;22.42;;;8.30;99.90;;;;;;5032407;28;20069;-76
2023/12/30 11:52:07;;;;;;;26.15;21.70;;;8.30;99.90;;;;;;4992352;28;20041;-76
2023/12/30 11:54:35;;;;;;;24.20;20.83;;;8.30;99.90;;;;;;4990520;28;20840;-76
2023/12/30 11:57:06;;;;;;;24.52;21.80;;;8.30;99.90;;;;;;5007027;28;20049;-74
2023/12/30 11:59:33;;;;;;;20.67;17.58;;;8.30;99.90;;;;;;5024634;28;20049;-75
2023/12/30 12:02:11;;;;;;;19.98;18.20;;;8.40;99.90;;;;;;5017573;28;20052;-76
2023/12/30 12:04:39;;;;;;;20.75;18.70;;;8.40;99.90;;;;;;5020347;28;20132;-76
2023/12/30 12:07:06;;;;;;;22.38;18.30;;;8.40;99.90;;;;;;5016626;28;20079;-77
2023/12/30 12:09:33;;;;;;;22.45;20.20;;;8.50;99.90;;;;;;5003075;28;20072;-77
2023/12/30 12:12:01;;;;;;;19.98;18.27;;;8.60;99.90;;;;;;4994256;28;20547;-76
2023/12/30 12:14:29;;;;;;;22.67;20.27;;;8.70;99.90;;;;;;4995729;28;20068;-77
2023/12/30 12:16:56;;;;;;;21.05;18.83;;;8.70;99.90;;;;;;5025272;28;20056;-77
2023/12/30 12:19:25;;;;;;;20.73;18.05;;;8.60;99.90;;;;;;5015322;28;20055;-77
2023/12/30 12:21:58;;;;;;;22.58;17.92;;;8.50;99.90;;;;;;5023935;28;20072;-76
2023/12/30 12:24:26;;;;;;;20.83;17.67;;;8.60;99.90;;;;;;5020132;28;20057;-75
2023/12/30 12:26:53;;;;;;;24.92;17.98;;;8.50;99.90;;;;;;5028424;28;20045;-75
2023/12/30 12:29:20;;;;;;;19.25;17.23;;;8.40;99.90;;;;;;5029166;28;20045;-75
2023/12/30 12:31:47;;;;;;;24.50;19.95;;;8.40;99.90;;;;;;5031972;28;20045;-75
2023/12/30 12:34:22;;;;;;;24.17;19.98;;;8.40;99.90;;;;;;5022410;28;20040;-76
2023/12/30 12:36:49;;;;;;;22.65;17.52;;;8.40;99.90;;;;;;5029253;28;20519;-76
2023/12/30 12:39:17;;;;;;;29.20;18.80;;;8.40;99.90;;;;;;5028988;28;20893;-76
2023/12/30 12:41:45;;;;;;;22.08;18.20;;;8.40;99.90;;;;;;5022007;28;20127;-76
2023/12/30 12:44:12;;;;;;;22.85;19.50;;;8.40;99.90;;;;;;5027881;28;20546;-77
2023/12/30 12:46:38;;;;;;;23.80;18.70;;;8.40;99.90;;;;;;5016476;28;20041;-77